createdAt,value
2018-07-23T00:00:47.274Z,19.07
2018-07-23T00:02:50.836Z,18.20
2018-07-23T00:04:54.382Z,17.27
2018-07-23T00:06:58.114Z,19.47
2018-07-23T00:09:01.290Z,18.83
2018-07-23T00:11:04.935Z,19.33
2018-07-23T00:13:08.547Z,19.53
2018-07-23T00:15:12.115Z,20.17
2018-07-23T00:17:15.695Z,21.37
2018-07-23T00:19:19.364Z,18.70
2018-07-23T00:21:22.928Z,19.90
2018-07-23T00:23:26.490Z,21.10
2018-07-23T00:25:30.403Z,19.03
2018-07-23T00:27:34.099Z,18.10
2018-07-23T00:29:37.595Z,19.27
2018-07-23T00:31:41.121Z,20.80
2018-07-23T00:33:44.750Z,21.17
2018-07-23T00:35:48.335Z,23.00
2018-07-23T00:37:51.910Z,21.53
2018-07-23T00:39:55.434Z,21.33
2018-07-23T00:41:58.979Z,21.30
2018-07-23T00:44:02.522Z,23.27
2018-07-23T00:46:06.106Z,21.67
2018-07-23T00:48:09.695Z,22.13
2018-07-23T00:50:13.318Z,21.80
2018-07-23T00:52:16.970Z,23.20
2018-07-23T00:54:20.531Z,23.03
2018-07-23T00:56:24.078Z,22.17
2018-07-23T00:58:27.610Z,22.83
2018-07-23T01:00:31.138Z,21.47
2018-07-23T01:02:34.739Z,20.30
2018-07-23T01:04:38.282Z,20.77
2018-07-23T01:06:41.850Z,20.83
2018-07-23T01:08:45.399Z,22.37
2018-07-23T01:10:49.095Z,22.67
2018-07-23T01:12:52.695Z,21.77
2018-07-23T01:14:56.284Z,19.73
2018-07-23T01:16:59.836Z,21.67
2018-07-23T01:19:03.384Z,21.37
2018-07-23T01:21:07.088Z,23.13
2018-07-23T01:23:10.821Z,22.13
2018-07-23T01:25:14.414Z,24.40
2018-07-23T01:27:18.194Z,24.10
2018-07-23T01:29:21.776Z,25.40
2018-07-23T01:31:25.372Z,26.50
2018-07-23T01:33:28.612Z,26.83
2018-07-23T01:35:32.179Z,24.40
2018-07-23T01:37:35.708Z,26.30
2018-07-23T01:39:39.239Z,25.73
2018-07-23T01:44:01.610Z,26.23
2018-07-23T01:46:05.256Z,27.57
2018-07-23T01:48:08.789Z,26.40
2018-07-23T01:50:12.367Z,23.47
2018-07-23T01:52:15.890Z,25.93
2018-07-23T01:54:19.426Z,25.23
2018-07-23T01:56:22.925Z,25.17
2018-07-23T01:58:26.478Z,25.67
2018-07-23T02:00:29.958Z,25.63
2018-07-23T02:02:33.503Z,26.43
2018-07-23T02:04:38.251Z,28.80
2018-07-23T02:06:41.851Z,28.17
2018-07-23T02:08:45.353Z,28.33
2018-07-23T02:10:48.886Z,27.33
2018-07-23T02:12:52.399Z,27.30
2018-07-23T02:14:55.984Z,27.10
2018-07-23T02:16:59.537Z,28.87
2018-07-23T02:19:02.823Z,28.57
2018-07-23T02:21:06.347Z,27.87
2018-07-23T02:23:09.899Z,25.97
2018-07-23T02:25:13.435Z,26.40
2018-07-23T02:27:16.933Z,24.20
2018-07-23T02:29:20.495Z,28.77
2018-07-23T02:31:24.019Z,25.07
2018-07-23T02:33:27.543Z,26.87
2018-07-23T02:35:31.032Z,29.47
2018-07-23T02:37:34.585Z,29.33
2018-07-23T02:39:38.121Z,29.57
2018-07-23T02:41:41.583Z,31.10
2018-07-23T02:43:45.130Z,30.23
2018-07-23T02:45:48.871Z,26.73
2018-07-23T02:47:52.376Z,27.93
2018-07-23T02:49:55.536Z,29.17
2018-07-23T02:51:59.104Z,28.97
2018-07-23T02:54:02.629Z,28.10
2018-07-23T02:56:06.220Z,29.43
2018-07-23T02:58:09.776Z,28.57
2018-07-23T03:00:13.369Z,29.57
2018-07-23T03:02:16.938Z,26.87
2018-07-23T03:04:20.431Z,26.37
2018-07-23T03:06:24.947Z,26.73
2018-07-23T03:08:28.479Z,29.63
2018-07-23T03:10:32.156Z,28.47
2018-07-23T03:12:35.913Z,30.27
2018-07-23T03:14:39.415Z,29.47
2018-07-23T03:16:42.910Z,28.23
2018-07-23T03:18:46.403Z,30.57
2018-07-23T03:20:49.881Z,29.70
2018-07-23T03:22:53.408Z,29.87
2018-07-23T03:24:56.927Z,32.50
2018-07-23T03:27:00.516Z,31.70
2018-07-23T03:29:10.889Z,31.67
2018-07-23T03:31:14.364Z,31.90
2018-07-23T03:33:18.051Z,32.00
2018-07-23T03:35:21.624Z,30.93
2018-07-23T03:37:25.351Z,29.80
2018-07-23T03:39:28.903Z,30.77
2018-07-23T03:41:32.422Z,27.30
2018-07-23T03:43:35.940Z,28.93
2018-07-23T03:45:39.435Z,28.43
2018-07-23T03:47:42.918Z,28.87
2018-07-23T03:49:46.488Z,27.47
2018-07-23T03:51:56.514Z,28.13
2018-07-23T03:54:00.032Z,29.30
2018-07-23T03:56:03.518Z,27.73
2018-07-23T03:58:07.092Z,27.53
2018-07-23T04:00:10.628Z,28.07
2018-07-23T04:02:14.345Z,27.43
2018-07-23T04:04:24.524Z,28.67
2018-07-23T04:06:28.179Z,28.20
2018-07-23T04:08:31.742Z,28.30
2018-07-23T04:10:35.328Z,29.63
2018-07-23T04:12:38.845Z,27.57
2018-07-23T04:14:42.740Z,29.10
2018-07-23T04:16:46.207Z,28.30
2018-07-23T04:18:49.694Z,30.03
2018-07-23T04:20:53.295Z,31.03
2018-07-23T04:22:56.913Z,33.43
2018-07-23T04:25:00.453Z,31.10
2018-07-23T04:27:03.995Z,30.83
2018-07-23T04:29:07.503Z,32.40
2018-07-23T04:31:10.995Z,32.77
2018-07-23T04:33:14.490Z,34.03
2018-07-23T04:35:18.031Z,33.23
2018-07-23T04:37:21.574Z,32.30
2018-07-23T04:39:25.117Z,35.67
2018-07-23T04:41:28.613Z,31.83
2018-07-23T04:43:32.226Z,32.07
2018-07-23T04:45:35.691Z,35.83
2018-07-23T04:47:39.368Z,32.43
2018-07-23T04:49:42.871Z,32.37
2018-07-23T04:51:46.388Z,34.10
2018-07-23T04:53:49.883Z,33.20
2018-07-23T04:55:53.409Z,31.33
2018-07-23T04:57:56.959Z,34.13
2018-07-23T05:00:00.933Z,32.80
2018-07-23T05:02:04.495Z,31.30
2018-07-23T05:04:08.041Z,31.53
2018-07-23T05:06:11.544Z,33.80
2018-07-23T05:08:21.913Z,30.80
2018-07-23T05:10:25.399Z,31.07
2018-07-23T05:12:28.893Z,30.67
2018-07-23T05:14:32.443Z,33.10
2018-07-23T05:16:36.027Z,31.80
2018-07-23T05:18:39.543Z,28.90
2018-07-23T05:20:43.076Z,31.17
2018-07-23T05:22:46.627Z,33.27
2018-07-23T05:24:50.249Z,33.00
2018-07-23T05:26:53.931Z,31.97
2018-07-23T05:28:57.471Z,30.97
2018-07-23T05:31:01.026Z,29.90
2018-07-23T05:33:04.617Z,28.30
2018-07-23T05:35:08.221Z,29.47
2018-07-23T05:37:11.783Z,33.23
2018-07-23T05:39:15.325Z,32.13
2018-07-23T05:41:18.886Z,33.03
2018-07-23T05:43:22.554Z,33.67
2018-07-23T05:45:26.167Z,34.20
2018-07-23T05:47:29.637Z,31.33
2018-07-23T05:49:32.830Z,31.47
2018-07-23T05:51:36.545Z,30.37
2018-07-23T05:53:40.129Z,31.90
2018-07-23T05:55:43.623Z,32.33
2018-07-23T05:57:47.166Z,29.27
2018-07-23T05:59:50.580Z,36.57
2018-07-23T06:01:54.070Z,31.67
2018-07-23T06:03:57.708Z,29.97
2018-07-23T06:06:01.200Z,32.07
2018-07-23T06:08:04.871Z,28.43
2018-07-23T06:10:08.444Z,28.10
2018-07-23T06:12:12.244Z,28.13
2018-07-23T06:14:15.959Z,29.20
2018-07-23T06:16:19.537Z,27.90
2018-07-23T06:18:23.066Z,26.40
2018-07-23T06:20:26.706Z,28.13
2018-07-23T06:22:30.205Z,24.93
2018-07-23T06:24:33.854Z,25.93
2018-07-23T06:26:37.381Z,27.27
2018-07-23T06:28:40.935Z,27.77
2018-07-23T06:30:44.474Z,26.87
2018-07-23T06:32:48.011Z,25.57
2018-07-23T06:34:51.572Z,25.60
2018-07-23T06:36:55.067Z,25.83
2018-07-23T06:38:58.560Z,24.80
2018-07-23T06:41:02.099Z,23.30
2018-07-23T06:43:05.839Z,24.60
2018-07-23T06:45:09.019Z,24.63
2018-07-23T06:47:12.646Z,22.70
2018-07-23T06:49:16.215Z,23.93
2018-07-23T06:51:19.762Z,22.47
2018-07-23T06:53:23.350Z,24.20
2018-07-23T06:55:26.852Z,24.67
2018-07-23T06:57:30.433Z,22.80
2018-07-23T06:59:34.202Z,22.80
2018-07-23T07:01:44.103Z,23.57
2018-07-23T07:03:47.612Z,23.47
2018-07-23T07:05:51.116Z,25.57
2018-07-23T07:07:54.613Z,24.50
2018-07-23T07:09:58.132Z,25.63
2018-07-23T07:12:01.794Z,23.43
2018-07-23T07:14:05.536Z,24.17
2018-07-23T07:16:09.042Z,23.57
2018-07-23T07:18:12.629Z,21.77
2018-07-23T07:20:16.274Z,24.50
2018-07-23T07:22:19.780Z,23.83
2018-07-23T07:24:23.374Z,23.60
2018-07-23T07:26:26.995Z,24.23
2018-07-23T07:28:30.467Z,23.43
2018-07-23T07:30:34.077Z,23.23
2018-07-23T07:32:37.642Z,23.33
2018-07-23T07:34:41.297Z,22.73
2018-07-23T07:36:44.736Z,25.17
2018-07-23T07:38:48.233Z,23.57
2018-07-23T07:40:51.775Z,22.57
2018-07-23T07:42:55.316Z,21.63
2018-07-23T07:44:58.854Z,22.43
2018-07-23T07:47:02.367Z,23.93
2018-07-23T07:49:06.054Z,24.60
2018-07-23T07:51:09.691Z,21.57
2018-07-23T07:53:12.866Z,22.13
2018-07-23T07:55:16.123Z,22.10
2018-07-23T07:57:19.743Z,22.53
2018-07-23T07:59:23.379Z,21.03
2018-07-23T08:01:27.000Z,21.03
2018-07-23T08:03:30.682Z,21.13
2018-07-23T08:05:34.219Z,24.43
2018-07-23T08:07:37.824Z,21.77
2018-07-23T08:09:41.329Z,20.40
2018-07-23T08:11:44.892Z,20.00
2018-07-23T08:13:48.453Z,18.30
2018-07-23T08:15:52.011Z,17.87
2018-07-23T08:17:55.549Z,18.83
2018-07-23T08:19:59.023Z,21.43
2018-07-23T08:22:02.687Z,20.53
2018-07-23T08:24:06.316Z,19.80
2018-07-23T08:26:09.961Z,20.03
2018-07-23T08:28:13.480Z,19.33
2018-07-23T08:30:17.105Z,20.03
2018-07-23T08:32:20.704Z,18.87
2018-07-23T08:34:24.155Z,19.70
2018-07-23T08:36:27.707Z,15.03
2018-07-23T08:38:31.271Z,14.27
2018-07-23T08:40:34.805Z,15.67
2018-07-23T08:42:38.398Z,17.40
2018-07-23T08:44:41.890Z,17.33
2018-07-23T08:46:45.382Z,15.23
2018-07-23T08:48:49.191Z,13.90
2018-07-23T08:50:52.466Z,17.13
2018-07-23T08:52:56.006Z,24.90
2018-07-23T08:54:59.608Z,14.80
2018-07-23T08:57:03.100Z,13.70
2018-07-23T08:59:06.787Z,12.67
2018-07-23T09:01:10.459Z,11.63
2018-07-23T09:03:14.050Z,14.93
2018-07-23T09:05:17.539Z,11.43
2018-07-23T09:07:21.010Z,15.93
2018-07-23T09:09:24.508Z,11.73
2018-07-23T09:11:28.102Z,11.83
2018-07-23T09:13:31.626Z,11.47
2018-07-23T09:15:35.135Z,18.27
2018-07-23T09:17:38.671Z,10.83
2018-07-23T09:19:42.191Z,11.60
2018-07-23T09:21:45.791Z,10.77
2018-07-23T09:23:49.354Z,10.48
2018-07-23T09:25:53.147Z,9.93
2018-07-23T09:27:56.646Z,9.90
2018-07-23T09:30:00.162Z,13.00
2018-07-23T09:32:03.645Z,10.90
2018-07-23T09:34:07.126Z,10.23
2018-07-23T09:36:10.715Z,10.43
2018-07-23T09:38:14.243Z,10.63
2018-07-23T09:40:17.862Z,9.07
2018-07-23T09:42:21.603Z,14.98
2018-07-23T09:44:25.096Z,10.87
2018-07-23T09:46:28.627Z,9.17
2018-07-23T09:48:32.101Z,8.63
2018-07-23T09:50:35.657Z,8.80
2018-07-23T09:52:39.255Z,10.32
2018-07-23T09:54:42.713Z,9.73
2018-07-23T09:56:46.245Z,8.40
2018-07-23T09:58:49.757Z,9.47
2018-07-23T10:00:57.944Z,10.77
2018-07-23T10:03:01.474Z,9.27
2018-07-23T10:05:04.951Z,11.40
2018-07-23T10:07:08.588Z,9.20
2018-07-23T10:09:12.446Z,10.53
2018-07-23T10:11:15.947Z,7.83
2018-07-23T10:13:19.613Z,9.50
2018-07-23T10:15:23.121Z,11.10
2018-07-23T10:17:26.631Z,9.03
2018-07-23T10:19:30.111Z,9.20
2018-07-23T10:21:33.747Z,9.23
2018-07-23T10:23:37.272Z,11.07
2018-07-23T10:25:40.988Z,9.53
2018-07-23T10:27:44.520Z,10.90
2018-07-23T10:29:47.998Z,9.73
2018-07-23T10:31:51.522Z,11.08
2018-07-23T10:33:54.858Z,13.37
2018-07-23T10:35:58.368Z,11.63
2018-07-23T10:38:01.891Z,9.98
2018-07-23T10:40:05.439Z,8.43
2018-07-23T10:42:08.987Z,8.80
2018-07-23T10:44:12.504Z,10.93
2018-07-23T10:46:15.982Z,8.33
2018-07-23T10:48:19.519Z,8.63
2018-07-23T10:50:22.998Z,9.10
2018-07-23T10:52:26.667Z,8.38
2018-07-23T10:54:30.191Z,8.53
2018-07-23T10:56:33.710Z,11.38
2018-07-23T10:58:37.236Z,9.73
2018-07-23T11:00:40.782Z,8.68
2018-07-23T11:02:44.394Z,10.50
2018-07-23T11:04:47.906Z,11.65
2018-07-23T11:06:51.504Z,9.65
2018-07-23T11:08:54.992Z,8.83
2018-07-23T11:10:58.504Z,12.53
2018-07-23T11:13:02.008Z,8.55
2018-07-23T11:15:06.683Z,9.73
2018-07-23T11:17:10.339Z,8.55
2018-07-23T11:19:14.025Z,9.05
2018-07-23T11:21:17.528Z,11.53
2018-07-23T11:23:21.144Z,9.30
2018-07-23T11:25:39.088Z,10.18
2018-07-23T11:27:28.197Z,10.10
2018-07-23T11:29:31.732Z,8.58
2018-07-23T11:31:35.155Z,9.18
2018-07-23T11:33:38.791Z,10.38
2018-07-23T11:35:42.239Z,8.15
2018-07-23T11:37:45.827Z,7.97
2018-07-23T11:39:49.287Z,9.40
2018-07-23T11:41:52.832Z,11.65
2018-07-23T11:43:56.375Z,8.48
2018-07-23T11:45:59.999Z,9.43
2018-07-23T11:48:03.540Z,11.03
2018-07-23T11:50:07.131Z,9.45
2018-07-23T11:52:14.363Z,12.70
2018-07-23T11:54:14.171Z,9.50
2018-07-23T11:56:17.659Z,12.05
2018-07-23T11:58:21.259Z,10.40
2018-07-23T12:00:24.831Z,17.77
2018-07-23T12:02:28.363Z,11.05
2018-07-23T12:04:31.970Z,13.13
2018-07-23T12:06:35.063Z,9.93
2018-07-23T12:08:38.378Z,9.63
2018-07-23T12:10:41.868Z,10.80
2018-07-23T12:12:45.378Z,9.10
2018-07-23T12:14:48.932Z,12.33
2018-07-23T12:16:52.417Z,9.53
2018-07-23T12:18:56.089Z,10.72
2018-07-23T12:20:59.706Z,8.80
2018-07-23T12:23:03.332Z,9.30
2018-07-23T12:25:06.859Z,9.53
2018-07-23T12:27:10.359Z,12.93
2018-07-23T12:29:13.874Z,8.78
2018-07-23T12:31:17.467Z,10.55
2018-07-23T12:33:20.985Z,8.38
2018-07-23T12:35:24.787Z,9.35
2018-07-23T12:37:28.396Z,8.58
2018-07-23T12:39:31.987Z,9.55
2018-07-23T12:41:35.510Z,9.93
2018-07-23T12:43:39.048Z,11.88
2018-07-23T12:45:42.533Z,9.60
2018-07-23T12:47:46.233Z,8.63
2018-07-23T12:49:49.755Z,8.58
2018-07-23T12:51:53.234Z,8.90
2018-07-23T12:53:56.794Z,12.18
2018-07-23T12:56:00.328Z,11.63
2018-07-23T12:58:03.897Z,8.30
2018-07-23T13:00:07.561Z,8.35
2018-07-23T13:02:11.042Z,8.88
2018-07-23T13:04:14.613Z,9.30
2018-07-23T13:06:18.166Z,7.45
2018-07-23T13:08:21.747Z,9.15
2018-07-23T13:10:25.327Z,9.20
2018-07-23T13:12:29.214Z,9.13
2018-07-23T13:14:32.847Z,8.30
2018-07-23T13:16:36.498Z,10.40
2018-07-23T13:18:40.119Z,8.53
2018-07-23T13:20:43.704Z,8.53
2018-07-23T13:22:47.917Z,8.65
2018-07-23T13:24:51.635Z,14.07
2018-07-23T13:26:55.267Z,9.40
2018-07-23T13:28:58.800Z,8.35
2018-07-23T13:31:02.383Z,9.75
2018-07-23T13:33:05.872Z,9.83
2018-07-23T13:35:09.454Z,9.38
2018-07-23T13:37:12.969Z,13.62
2018-07-23T13:39:16.487Z,10.30
2018-07-23T13:41:20.133Z,10.32
2018-07-23T13:43:24.147Z,12.93
2018-07-23T13:45:27.692Z,9.28
2018-07-23T13:47:31.228Z,11.78
2018-07-23T13:49:34.848Z,11.30
2018-07-23T13:51:38.395Z,9.33
2018-07-23T13:53:41.990Z,11.53
2018-07-23T13:55:45.460Z,8.98
2018-07-23T13:57:48.995Z,9.58
2018-07-23T13:59:52.534Z,10.05
2018-07-23T14:01:56.199Z,9.25
2018-07-23T14:03:59.808Z,9.63
2018-07-23T14:06:03.422Z,9.40
2018-07-23T14:08:06.943Z,8.78
2018-07-23T14:10:10.488Z,11.83
2018-07-23T14:12:14.039Z,12.30
2018-07-23T14:14:17.618Z,9.65
2018-07-23T14:16:21.174Z,9.20
2018-07-23T14:18:24.719Z,9.48
2018-07-23T14:20:28.521Z,10.93
2018-07-23T14:22:32.057Z,8.40
2018-07-23T14:24:35.584Z,10.25
2018-07-23T14:26:39.140Z,8.93
2018-07-23T14:28:42.691Z,8.75
2018-07-23T14:30:46.080Z,9.28
2018-07-23T14:32:50.191Z,9.93
2018-07-23T14:34:53.779Z,10.75
2018-07-23T14:36:57.354Z,8.53
2018-07-23T14:39:00.883Z,9.70
2018-07-23T14:41:04.415Z,11.25
2018-07-23T14:43:07.975Z,11.63
2018-07-23T14:45:11.651Z,10.58
2018-07-23T14:47:15.588Z,12.70
2018-07-23T14:49:19.221Z,11.43
2018-07-23T14:51:22.900Z,10.82
2018-07-23T14:53:26.391Z,10.08
2018-07-23T14:55:29.983Z,10.63
2018-07-23T14:57:33.560Z,11.73
2018-07-23T14:59:37.136Z,10.10
2018-07-23T15:01:40.694Z,9.90
2018-07-23T15:03:44.164Z,14.67
2018-07-23T15:05:48.023Z,15.65
2018-07-23T15:07:51.575Z,20.00
2018-07-23T15:09:55.200Z,17.17
2018-07-23T15:11:58.702Z,17.57
2018-07-23T15:14:02.256Z,20.27
2018-07-23T15:16:05.926Z,17.15
2018-07-23T15:18:09.443Z,17.23
2018-07-23T15:20:12.619Z,17.33
2018-07-23T15:22:16.118Z,18.07
2018-07-23T15:24:19.654Z,16.57
2018-07-23T15:26:23.202Z,18.30
2018-07-23T15:28:26.714Z,14.70
2018-07-23T15:30:30.259Z,16.70
2018-07-23T15:32:33.849Z,15.37
2018-07-23T15:34:37.293Z,17.33
2018-07-23T15:36:40.751Z,18.40
2018-07-23T15:38:44.299Z,17.57
2018-07-23T15:40:47.822Z,19.07
2018-07-23T15:42:51.472Z,18.07
2018-07-23T15:44:55.295Z,17.37
2018-07-23T15:46:58.624Z,19.37
2018-07-23T15:49:02.254Z,20.57
2018-07-23T15:51:05.810Z,18.37
2018-07-23T15:53:09.384Z,21.27
2018-07-23T15:55:12.902Z,18.10
2018-07-23T15:57:16.378Z,19.17
2018-07-23T15:59:19.904Z,18.03
2018-07-23T16:01:23.527Z,17.10
2018-07-23T16:03:27.075Z,19.33
2018-07-23T16:05:30.743Z,17.67
2018-07-23T16:07:34.348Z,18.87
2018-07-23T16:09:37.843Z,19.73
2018-07-23T16:11:41.556Z,18.60
2018-07-23T16:13:45.147Z,18.77
2018-07-23T16:15:48.673Z,16.43
2018-07-23T16:17:52.252Z,14.50
2018-07-23T16:19:55.788Z,13.60
2018-07-23T16:21:59.380Z,12.60
2018-07-23T16:24:02.852Z,14.50
2018-07-23T16:26:06.431Z,18.00
2018-07-23T16:28:10.057Z,16.03
2018-07-23T16:30:13.603Z,16.20
2018-07-23T16:32:17.143Z,17.00
2018-07-23T16:34:20.664Z,18.20
2018-07-23T16:36:24.154Z,18.00
2018-07-23T16:38:27.687Z,18.53
2018-07-23T16:40:31.187Z,18.50
2018-07-23T16:42:34.738Z,19.95
2018-07-23T16:44:38.244Z,17.62
2018-07-23T16:46:41.913Z,18.40
2018-07-23T16:48:45.406Z,17.53
2018-07-23T16:50:48.979Z,16.05
2018-07-23T16:52:52.470Z,16.53
2018-07-23T16:54:56.029Z,15.23
2018-07-23T16:56:59.678Z,17.23
2018-07-23T16:59:03.155Z,14.13
2018-07-23T17:01:06.859Z,14.03
2018-07-23T17:03:10.397Z,15.10
2018-07-23T17:05:13.906Z,15.73
2018-07-23T17:07:17.432Z,15.50
2018-07-23T17:09:20.898Z,16.80
2018-07-23T17:11:24.517Z,15.77
2018-07-23T17:13:28.096Z,14.37
2018-07-23T17:15:31.631Z,14.20
2018-07-23T17:17:35.168Z,14.10
2018-07-23T17:19:38.716Z,16.87
2018-07-23T17:21:42.271Z,17.17
2018-07-23T17:23:45.814Z,16.47
2018-07-23T17:25:56.067Z,17.27
2018-07-23T17:27:59.583Z,15.00
2018-07-23T17:30:03.128Z,15.37
2018-07-23T17:32:06.668Z,16.57
2018-07-23T17:34:10.212Z,15.80
2018-07-23T17:36:13.825Z,14.80
2018-07-23T17:38:17.363Z,15.33
2018-07-23T17:40:20.908Z,14.13
2018-07-23T17:42:24.488Z,15.37
2018-07-23T17:44:27.963Z,14.10
2018-07-23T17:46:31.505Z,14.27
2018-07-23T17:48:35.057Z,12.45
2018-07-23T17:50:38.640Z,13.80
2018-07-23T17:52:42.214Z,16.33
2018-07-23T17:54:45.760Z,17.73
2018-07-23T17:56:49.538Z,15.27
2018-07-23T17:58:53.164Z,16.97
2018-07-23T18:00:56.694Z,14.90
2018-07-23T18:03:00.284Z,14.70
2018-07-23T18:05:03.901Z,13.83
2018-07-23T18:07:07.545Z,15.40
2018-07-23T18:09:12.640Z,15.63
2018-07-23T18:11:16.307Z,15.53
2018-07-23T18:13:19.851Z,15.43
2018-07-23T18:15:23.382Z,16.20
2018-07-23T18:17:26.938Z,17.23
2018-07-23T18:19:30.451Z,17.23
2018-07-23T18:21:33.975Z,16.73
2018-07-23T18:23:37.608Z,16.53
2018-07-23T18:25:41.303Z,15.43
2018-07-23T18:27:44.919Z,14.60
2018-07-23T18:29:48.472Z,14.30
2018-07-23T18:31:52.003Z,14.80
2018-07-23T18:33:55.662Z,14.40
2018-07-23T18:35:59.192Z,12.60
2018-07-23T18:38:02.812Z,14.00
2018-07-23T18:40:06.379Z,13.37
2018-07-23T18:42:10.005Z,14.17
2018-07-23T18:44:13.558Z,13.90
2018-07-23T18:46:17.315Z,12.33
2018-07-23T18:49:43.114Z,13.80
2018-07-23T18:51:51.967Z,15.10
2018-07-23T18:53:55.483Z,18.57
2018-07-23T18:55:59.102Z,17.10
2018-07-23T18:58:02.699Z,20.50
2018-07-23T19:00:06.663Z,17.90
2018-07-23T19:02:11.639Z,17.60
2018-07-23T19:04:15.128Z,16.30
2018-07-23T19:06:18.701Z,14.50
2018-07-23T19:08:22.261Z,14.83
2018-07-23T19:10:25.792Z,13.07
2018-07-23T19:12:29.366Z,14.07
2018-07-23T19:14:32.560Z,14.17
2018-07-23T19:16:36.258Z,15.17
2018-07-23T19:18:39.828Z,16.40
2018-07-23T19:20:43.362Z,16.70
2018-07-23T19:22:46.935Z,17.10
2018-07-23T19:24:50.663Z,19.23
2018-07-23T19:26:54.351Z,18.87
2018-07-23T19:28:58.082Z,18.60
2018-07-23T19:31:01.611Z,18.93
2018-07-23T19:33:05.256Z,17.43
2018-07-23T19:35:08.774Z,17.00
2018-07-23T19:37:12.407Z,17.17
2018-07-23T19:39:17.348Z,16.97
2018-07-23T19:41:20.947Z,18.77
2018-07-23T19:43:24.563Z,16.67
2018-07-23T19:45:28.102Z,15.30
2018-07-23T19:47:31.688Z,15.37
2018-07-23T19:49:35.283Z,15.63
2018-07-23T19:51:38.861Z,16.13
2018-07-23T19:53:42.486Z,16.93
2018-07-23T19:55:45.999Z,17.93
2018-07-23T19:57:49.656Z,17.33
2018-07-23T19:59:53.266Z,17.77
2018-07-23T20:01:56.778Z,16.80
2018-07-23T20:04:00.381Z,16.70
2018-07-23T20:06:04.020Z,15.67
2018-07-23T20:08:07.551Z,16.87
2018-07-23T20:10:11.141Z,15.50
2018-07-23T20:12:14.768Z,18.37
2018-07-23T20:14:18.342Z,16.67
2018-07-23T20:16:21.949Z,15.30
2018-07-23T20:18:25.559Z,16.40
2018-07-23T20:20:29.202Z,15.83
2018-07-23T20:22:32.838Z,22.30
2018-07-23T20:24:36.572Z,16.10
2018-07-23T20:26:40.141Z,15.40
2018-07-23T20:28:43.742Z,16.00
2018-07-23T20:30:47.281Z,15.07
2018-07-23T20:32:50.831Z,15.10
2018-07-23T20:34:54.355Z,15.63
2018-07-23T20:36:57.862Z,15.63
2018-07-23T20:39:01.557Z,16.10
2018-07-23T20:41:05.063Z,14.73
2018-07-23T20:43:08.728Z,16.47
2018-07-23T20:45:12.674Z,16.80
2018-07-23T20:47:16.240Z,19.80
2018-07-23T20:49:19.798Z,17.47
2018-07-23T20:51:23.361Z,18.70
2018-07-23T20:53:26.971Z,20.60
2018-07-23T20:55:30.457Z,21.07
2018-07-23T20:57:33.946Z,18.70
2018-07-23T20:59:37.504Z,20.33
2018-07-23T21:01:41.072Z,23.50
2018-07-23T21:03:44.642Z,17.87
2018-07-23T21:05:48.196Z,14.30
2018-07-23T21:07:51.893Z,14.27
2018-07-23T21:09:55.480Z,13.60
2018-07-23T21:11:58.968Z,13.87
2018-07-23T21:14:02.498Z,13.30
2018-07-23T21:16:06.027Z,14.60
2018-07-23T21:18:09.800Z,14.97
2018-07-23T21:20:13.414Z,14.37
2018-07-23T21:22:17.014Z,14.17
2018-07-23T21:24:20.470Z,14.87
2018-07-23T21:26:24.016Z,15.13
2018-07-23T21:28:27.631Z,13.53
2018-07-23T21:30:31.172Z,13.63
2018-07-23T21:32:34.763Z,15.83
2018-07-23T21:34:38.295Z,14.80
2018-07-23T21:36:41.963Z,16.03
2018-07-23T21:38:45.631Z,14.40
2018-07-23T21:40:49.154Z,15.27
2018-07-23T21:42:52.705Z,15.60
2018-07-23T21:44:56.263Z,15.77
2018-07-23T21:46:59.759Z,15.00
2018-07-23T21:49:03.354Z,14.70
2018-07-23T21:51:06.867Z,16.20
2018-07-23T21:53:10.372Z,19.30
2018-07-23T21:55:13.971Z,16.17
2018-07-23T21:57:17.480Z,16.37
2018-07-23T21:59:20.765Z,14.43
2018-07-23T22:01:24.303Z,15.63
2018-07-23T22:03:27.991Z,16.03
2018-07-23T22:05:31.623Z,15.03
2018-07-23T22:07:35.284Z,14.83
2018-07-23T22:09:38.826Z,14.97
2018-07-23T22:11:42.348Z,15.30
2018-07-23T22:13:45.835Z,17.57
2018-07-23T22:15:49.371Z,16.73
2018-07-23T22:17:52.868Z,14.70
2018-07-23T22:19:56.475Z,16.10
2018-07-23T22:21:59.963Z,15.87
2018-07-23T22:24:03.486Z,15.37
2018-07-23T22:26:07.258Z,15.47
2018-07-23T22:28:10.903Z,15.20
2018-07-23T22:30:14.430Z,15.37
2018-07-23T22:32:18.373Z,17.00
2018-07-23T22:34:21.900Z,17.17
2018-07-23T22:36:25.737Z,16.77
2018-07-23T22:38:29.287Z,17.27
2018-07-23T22:40:33.168Z,17.23
2018-07-23T22:42:37.230Z,17.60
2018-07-23T22:44:40.867Z,18.27
2018-07-23T22:46:44.408Z,17.60
2018-07-23T22:48:47.887Z,19.03
2018-07-23T22:50:51.403Z,19.17
2018-07-23T22:52:54.887Z,18.03
2018-07-23T22:54:58.391Z,17.13
2018-07-23T22:57:02.001Z,17.60
2018-07-23T22:59:05.591Z,17.73
2018-07-23T23:01:09.143Z,17.33
2018-07-23T23:03:12.634Z,17.57
2018-07-23T23:05:16.183Z,18.20
2018-07-23T23:07:19.675Z,18.47
2018-07-23T23:09:23.251Z,17.00
2018-07-23T23:11:26.779Z,17.93
2018-07-23T23:13:30.282Z,17.90
2018-07-23T23:15:33.790Z,17.03
2018-07-23T23:17:37.283Z,18.60
2018-07-23T23:19:40.847Z,17.30
2018-07-23T23:21:44.400Z,19.77
2018-07-23T23:23:47.928Z,17.47
2018-07-23T23:25:51.584Z,18.50
2018-07-23T23:27:55.120Z,19.50
2018-07-23T23:29:58.987Z,17.70
2018-07-23T23:32:02.507Z,18.87
2018-07-23T23:34:06.278Z,17.17
2018-07-23T23:36:09.911Z,19.50
2018-07-23T23:38:13.406Z,19.03
2018-07-23T23:40:17.102Z,20.10
2018-07-23T23:42:20.606Z,25.03
2018-07-23T23:44:24.114Z,18.73
2018-07-23T23:46:27.627Z,18.67
2018-07-23T23:48:31.164Z,17.83
2018-07-23T23:50:34.683Z,17.83
2018-07-23T23:52:38.218Z,20.70
2018-07-23T23:54:41.783Z,24.27
2018-07-23T23:56:45.372Z,19.00
2018-07-23T23:58:48.878Z,22.30
